首页
METAR-TAF:

METAR-TAF

机场 :

里加国际机场

里加, 拉脱维亚

纬度: 56-55N, 经度: 023-58E, 海拔: 10米

当前天气观测

该预报发布于29分钟前的04:50 UTC
风速3节,风向北转西北,在西转西北之间变化
温度 8°C
湿度 100%
气压 1017 hPa
能见度10公里或以上
多云层高于2100英尺
阴天层高于4800英尺

METAR: EVRA 140450Z 34003KT 290V360 9999 BKN021 OVC048 08/08 Q1017 R36/290195 NOSIG

时间: 07:19 (05:19 UTC)

预报

该预报发布于3小时和19分钟前的02:00 UTC
预报有效从14日的 03点(UTC)到 15日的 03点(UTC)
风速6节,风向西转西北
能見度: 7000
阴天层高于500英尺
短暂存在
从 14日的 03点(UTC)到 14日的 08点(UTC)
能見度: 3000
阴天层高于300英尺
轻雾
成为
从 14日的 10点(UTC)到 14日的 12点(UTC)
多云层高于1300英尺
短暂存在
从 14日的 16点(UTC)到 15日的 03点(UTC)
能見度: 3000
阴天层高于500英尺
轻雾

TAF: EVRA 140200Z 1403/1503 30006KT 7000 OVC005 TEMPO 1403/1408 3000 BR OVC003 BECMG 1410/1412 BKN013 TEMPO 1416/1503 3000 BR OVC005

超过4000个机场的气象观测和天气预报(METAR&TAF报告)。

可查询的气象台以黄色和红色小点在地图上表示。

将鼠标移到小点上方,可查看气象台名称。

然后点击查看天气观测和预报。

如需切换地图:点击带黑十字的绿色按钮放大地图;点击带横线的绿色按钮缩小地图;或者点击绿色箭头查看邻近地区的地图。


METAR-TAF: